sensor_id;sensor_type;location;lat;lon;timestamp;P1;durP1;ratioP1;P2;durP2;ratioP2
16099;SDS011;8154;50.830;12.082;2024-01-06T00:01:13;3.30;;;1.60;;
16099;SDS011;8154;50.830;12.082;2024-01-06T00:03:43;3.67;;;1.60;;
16099;SDS011;8154;50.830;12.082;2024-01-06T00:06:11;3.13;;;1.40;;
16099;SDS011;8154;50.830;12.082;2024-01-06T00:08:38;2.90;;;1.40;;
16099;SDS011;8154;50.830;12.082;2024-01-06T00:11:05;2.53;;;1.50;;
16099;SDS011;8154;50.830;12.082;2024-01-06T00:13:33;2.85;;;1.50;;
16099;SDS011;8154;50.830;12.082;2024-01-06T00:16:00;3.50;;;1.75;;
16099;SDS011;8154;50.830;12.082;2024-01-06T00:18:26;3.23;;;1.67;;
16099;SDS011;8154;50.830;12.082;2024-01-06T00:20:52;3.50;;;1.60;;
16099;SDS011;8154;50.830;12.082;2024-01-06T00:23:19;3.20;;;1.70;;
16099;SDS011;8154;50.830;12.082;2024-01-06T00:26:04;3.22;;;1.60;;
16099;SDS011;8154;50.830;12.082;2024-01-06T00:28:50;3.42;;;1.60;;
16099;SDS011;8154;50.830;12.082;2024-01-06T00:31:35;4.27;;;1.90;;
16099;SDS011;8154;50.830;12.082;2024-01-06T00:34:16;3.40;;;1.50;;
16099;SDS011;8154;50.830;12.082;2024-01-06T00:36:57;3.15;;;1.35;;
16099;SDS011;8154;50.830;12.082;2024-01-06T00:39:24;3.10;;;1.58;;
16099;SDS011;8154;50.830;12.082;2024-01-06T00:41:50;3.35;;;1.50;;
16099;SDS011;8154;50.830;12.082;2024-01-06T00:44:18;3.33;;;1.60;;
16099;SDS011;8154;50.830;12.082;2024-01-06T00:47:04;3.08;;;1.63;;
16099;SDS011;8154;50.830;12.082;2024-01-06T00:49:50;3.20;;;1.52;;
16099;SDS011;8154;50.830;12.082;2024-01-06T00:52:19;3.28;;;1.50;;
16099;SDS011;8154;50.830;12.082;2024-01-06T00:54:46;3.58;;;1.77;;
16099;SDS011;8154;50.830;12.082;2024-01-06T00:57:32;3.67;;;1.80;;
16099;SDS011;8154;50.830;12.082;2024-01-06T01:00:01;3.15;;;1.65;;
16099;SDS011;8154;50.830;12.082;2024-01-06T01:02:29;3.78;;;1.70;;
16099;SDS011;8154;50.830;12.082;2024-01-06T01:05:14;3.25;;;1.50;;
16099;SDS011;8154;50.830;12.082;2024-01-06T01:07:43;3.20;;;1.55;;
16099;SDS011;8154;50.830;12.082;2024-01-06T01:10:10;4.13;;;1.70;;
16099;SDS011;8154;50.830;12.082;2024-01-06T01:12:55;3.50;;;1.88;;
16099;SDS011;8154;50.830;12.082;2024-01-06T01:15:25;3.42;;;1.40;;
16099;SDS011;8154;50.830;12.082;2024-01-06T01:17:56;3.15;;;1.52;;
16099;SDS011;8154;50.830;12.082;2024-01-06T01:20:23;4.15;;;1.70;;
16099;SDS011;8154;50.830;12.082;2024-01-06T01:22:50;3.00;;;1.50;;
16099;SDS011;8154;50.830;12.082;2024-01-06T01:25:16;3.28;;;1.60;;
16099;SDS011;8154;50.830;12.082;2024-01-06T01:27:51;3.42;;;1.70;;
16099;SDS011;8154;50.830;12.082;2024-01-06T01:30:18;3.08;;;1.50;;
16099;SDS011;8154;50.830;12.082;2024-01-06T01:33:04;3.53;;;1.70;;
16099;SDS011;8154;50.830;12.082;2024-01-06T01:35:49;3.40;;;1.50;;
16099;SDS011;8154;50.830;12.082;2024-01-06T01:38:36;3.92;;;1.70;;
16099;SDS011;8154;50.830;12.082;2024-01-06T01:41:17;2.83;;;1.55;;
16099;SDS011;8154;50.830;12.082;2024-01-06T01:43:44;3.55;;;1.50;;
16099;SDS011;8154;50.830;12.082;2024-01-06T01:46:15;4.15;;;1.80;;
16099;SDS011;8154;50.830;12.082;2024-01-06T01:49:01;2.77;;;1.50;;
16099;SDS011;8154;50.830;12.082;2024-01-06T01:51:48;3.15;;;1.30;;
16099;SDS011;8154;50.830;12.082;2024-01-06T01:54:30;3.47;;;1.50;;
16099;SDS011;8154;50.830;12.082;2024-01-06T01:57:01;3.42;;;1.65;;
16099;SDS011;8154;50.830;12.082;2024-01-06T01:59:31;3.88;;;1.58;;
16099;SDS011;8154;50.830;12.082;2024-01-06T02:02:12;3.80;;;1.70;;
16099;SDS011;8154;50.830;12.082;2024-01-06T02:04:56;3.33;;;1.65;;
16099;SDS011;8154;50.830;12.082;2024-01-06T02:07:22;3.42;;;1.45;;
16099;SDS011;8154;50.830;12.082;2024-01-06T02:09:53;2.80;;;1.52;;
16099;SDS011;8154;50.830;12.082;2024-01-06T02:12:20;2.60;;;1.30;;
16099;SDS011;8154;50.830;12.082;2024-01-06T02:14:47;3.27;;;1.53;;
16099;SDS011;8154;50.830;12.082;2024-01-06T02:17:19;3.45;;;1.60;;
16099;SDS011;8154;50.830;12.082;2024-01-06T02:20:06;2.85;;;1.40;;
16099;SDS011;8154;50.830;12.082;2024-01-06T02:22:53;3.28;;;1.65;;
16099;SDS011;8154;50.830;12.082;2024-01-06T02:25:36;3.13;;;1.50;;
16099;SDS011;8154;50.830;12.082;2024-01-06T02:28:06;3.50;;;1.77;;
16099;SDS011;8154;50.830;12.082;2024-01-06T02:30:32;3.22;;;1.63;;
16099;SDS011;8154;50.830;12.082;2024-01-06T02:33:06;2.75;;;1.48;;
16099;SDS011;8154;50.830;12.082;2024-01-06T02:35:52;3.05;;;1.50;;
16099;SDS011;8154;50.830;12.082;2024-01-06T02:38:18;3.15;;;1.45;;
16099;SDS011;8154;50.830;12.082;2024-01-06T02:40:45;3.67;;;1.67;;
16099;SDS011;8154;50.830;12.082;2024-01-06T02:43:11;3.38;;;1.80;;
16099;SDS011;8154;50.830;12.082;2024-01-06T02:45:41;2.88;;;1.40;;
16099;SDS011;8154;50.830;12.082;2024-01-06T02:48:08;2.67;;;1.38;;
16099;SDS011;8154;50.830;12.082;2024-01-06T02:50:35;3.47;;;1.60;;
16099;SDS011;8154;50.830;12.082;2024-01-06T02:53:01;3.50;;;1.50;;
16099;SDS011;8154;50.830;12.082;2024-01-06T02:55:28;3.60;;;1.70;;
16099;SDS011;8154;50.830;12.082;2024-01-06T02:57:56;3.40;;;1.50;;
16099;SDS011;8154;50.830;12.082;2024-01-06T03:00:26;2.95;;;1.42;;
16099;SDS011;8154;50.830;12.082;2024-01-06T03:03:12;2.75;;;1.40;;
16099;SDS011;8154;50.830;12.082;2024-01-06T03:05:50;2.87;;;1.20;;
16099;SDS011;8154;50.830;12.082;2024-01-06T03:08:19;2.92;;;1.38;;
16099;SDS011;8154;50.830;12.082;2024-01-06T03:10:49;2.38;;;1.20;;
16099;SDS011;8154;50.830;12.082;2024-01-06T03:13:17;3.40;;;1.55;;
16099;SDS011;8154;50.830;12.082;2024-01-06T03:16:03;2.25;;;1.35;;
16099;SDS011;8154;50.830;12.082;2024-01-06T03:18:51;3.40;;;1.60;;
16099;SDS011;8154;50.830;12.082;2024-01-06T03:21:33;3.42;;;1.63;;
16099;SDS011;8154;50.830;12.082;2024-01-06T03:24:06;3.00;;;1.40;;
16099;SDS011;8154;50.830;12.082;2024-01-06T03:26:54;3.25;;;1.77;;
16099;SDS011;8154;50.830;12.082;2024-01-06T03:29:20;3.00;;;1.35;;
16099;SDS011;8154;50.830;12.082;2024-01-06T03:31:47;2.77;;;1.33;;
16099;SDS011;8154;50.830;12.082;2024-01-06T03:34:17;2.60;;;1.30;;
16099;SDS011;8154;50.830;12.082;2024-01-06T03:36:43;2.67;;;1.40;;
16099;SDS011;8154;50.830;12.082;2024-01-06T03:39:12;2.58;;;1.30;;
16099;SDS011;8154;50.830;12.082;2024-01-06T03:41:40;3.15;;;1.50;;
16099;SDS011;8154;50.830;12.082;2024-01-06T03:44:07;2.83;;;1.50;;
16099;SDS011;8154;50.830;12.082;2024-01-06T03:46:35;2.63;;;1.40;;
16099;SDS011;8154;50.830;12.082;2024-01-06T03:49:08;3.40;;;1.70;;
16099;SDS011;8154;50.830;12.082;2024-01-06T03:51:35;2.60;;;1.40;;
16099;SDS011;8154;50.830;12.082;2024-01-06T03:54:01;3.17;;;1.50;;
16099;SDS011;8154;50.830;12.082;2024-01-06T03:56:27;3.13;;;1.43;;
16099;SDS011;8154;50.830;12.082;2024-01-06T03:58:54;3.72;;;1.50;;
16099;SDS011;8154;50.830;12.082;2024-01-06T04:01:23;2.70;;;1.20;;
16099;SDS011;8154;50.830;12.082;2024-01-06T04:03:50;2.72;;;1.48;;
16099;SDS011;8154;50.830;12.082;2024-01-06T04:06:17;3.20;;;1.50;;
16099;SDS011;8154;50.830;12.082;2024-01-06T04:08:43;3.10;;;1.50;;
16099;SDS011;8154;50.830;12.082;2024-01-06T04:11:09;2.28;;;1.23;;
16099;SDS011;8154;50.830;12.082;2024-01-06T04:13:36;2.80;;;1.30;;
16099;SDS011;8154;50.830;12.082;2024-01-06T04:16:08;2.83;;;1.40;;
16099;SDS011;8154;50.830;12.082;2024-01-06T04:19:00;3.53;;;1.50;;
16099;SDS011;8154;50.830;12.082;2024-01-06T04:21:27;2.60;;;1.40;;
16099;SDS011;8154;50.830;12.082;2024-01-06T04:23:56;2.80;;;1.30;;
16099;SDS011;8154;50.830;12.082;2024-01-06T04:26:30;3.05;;;1.40;;
16099;SDS011;8154;50.830;12.082;2024-01-06T04:29:15;2.72;;;1.48;;
16099;SDS011;8154;50.830;12.082;2024-01-06T04:31:43;3.38;;;1.40;;
16099;SDS011;8154;50.830;12.082;2024-01-06T04:34:21;2.80;;;1.30;;
16099;SDS011;8154;50.830;12.082;2024-01-06T04:36:48;2.58;;;1.30;;
16099;SDS011;8154;50.830;12.082;2024-01-06T04:39:31;2.38;;;1.30;;
16099;SDS011;8154;50.830;12.082;2024-01-06T04:42:08;2.17;;;1.30;;
16099;SDS011;8154;50.830;12.082;2024-01-06T04:44:50;2.55;;;1.30;;
16099;SDS011;8154;50.830;12.082;2024-01-06T04:47:24;3.30;;;1.37;;
16099;SDS011;8154;50.830;12.082;2024-01-06T04:50:10;3.10;;;1.40;;
16099;SDS011;8154;50.830;12.082;2024-01-06T04:52:37;2.55;;;1.38;;
16099;SDS011;8154;50.830;12.082;2024-01-06T04:55:05;2.85;;;1.30;;
16099;SDS011;8154;50.830;12.082;2024-01-06T04:57:34;2.95;;;1.30;;
16099;SDS011;8154;50.830;12.082;2024-01-06T05:00:02;2.33;;;1.20;;
16099;SDS011;8154;50.830;12.082;2024-01-06T05:02:47;2.70;;;1.40;;
16099;SDS011;8154;50.830;12.082;2024-01-06T05:05:27;3.15;;;1.48;;
16099;SDS011;8154;50.830;12.082;2024-01-06T05:08:04;2.53;;;1.40;;
16099;SDS011;8154;50.830;12.082;2024-01-06T05:10:33;2.22;;;1.30;;
16099;SDS011;8154;50.830;12.082;2024-01-06T05:12:59;2.93;;;1.40;;
16099;SDS011;8154;50.830;12.082;2024-01-06T05:15:25;2.97;;;1.50;;
16099;SDS011;8154;50.830;12.082;2024-01-06T05:17:52;2.70;;;1.40;;
16099;SDS011;8154;50.830;12.082;2024-01-06T05:20:18;2.40;;;1.25;;
16099;SDS011;8154;50.830;12.082;2024-01-06T05:22:44;3.10;;;1.33;;
16099;SDS011;8154;50.830;12.082;2024-01-06T05:25:13;2.67;;;1.33;;
16099;SDS011;8154;50.830;12.082;2024-01-06T05:27:39;2.17;;;1.17;;
16099;SDS011;8154;50.830;12.082;2024-01-06T05:30:06;2.85;;;1.40;;
16099;SDS011;8154;50.830;12.082;2024-01-06T05:32:34;2.90;;;1.40;;
16099;SDS011;8154;50.830;12.082;2024-01-06T05:35:03;2.70;;;1.50;;
16099;SDS011;8154;50.830;12.082;2024-01-06T05:37:49;2.37;;;1.30;;
16099;SDS011;8154;50.830;12.082;2024-01-06T05:40:35;2.70;;;1.40;;
16099;SDS011;8154;50.830;12.082;2024-01-06T05:43:01;2.92;;;1.50;;
16099;SDS011;8154;50.830;12.082;2024-01-06T05:45:31;2.45;;;1.23;;
16099;SDS011;8154;50.830;12.082;2024-01-06T05:48:01;2.95;;;1.30;;
16099;SDS011;8154;50.830;12.082;2024-01-06T05:50:28;2.50;;;1.30;;
16099;SDS011;8154;50.830;12.082;2024-01-06T05:52:55;2.92;;;1.38;;
16099;SDS011;8154;50.830;12.082;2024-01-06T05:55:34;2.65;;;1.30;;
16099;SDS011;8154;50.830;12.082;2024-01-06T05:58:01;2.33;;;1.10;;
16099;SDS011;8154;50.830;12.082;2024-01-06T06:00:47;3.20;;;1.27;;
16099;SDS011;8154;50.830;12.082;2024-01-06T06:03:17;2.77;;;1.40;;
16099;SDS011;8154;50.830;12.082;2024-01-06T06:05:50;2.42;;;1.20;;
16099;SDS011;8154;50.830;12.082;2024-01-06T06:08:36;2.47;;;1.20;;
16099;SDS011;8154;50.830;12.082;2024-01-06T06:11:03;2.72;;;1.20;;
16099;SDS011;8154;50.830;12.082;2024-01-06T06:13:45;2.42;;;1.10;;
16099;SDS011;8154;50.830;12.082;2024-01-06T06:16:12;3.23;;;1.30;;
16099;SDS011;8154;50.830;12.082;2024-01-06T06:18:43;3.08;;;1.40;;
16099;SDS011;8154;50.830;12.082;2024-01-06T06:21:29;2.58;;;1.20;;
16099;SDS011;8154;50.830;12.082;2024-01-06T06:23:56;2.60;;;1.25;;
16099;SDS011;8154;50.830;12.082;2024-01-06T06:26:22;2.42;;;1.20;;
16099;SDS011;8154;50.830;12.082;2024-01-06T06:36:10;2.83;;;1.27;;
16099;SDS011;8154;50.830;12.082;2024-01-06T06:38:37;2.33;;;1.20;;
16099;SDS011;8154;50.830;12.082;2024-01-06T06:41:03;1.67;;;0.90;;
16099;SDS011;8154;50.830;12.082;2024-01-06T06:43:29;1.67;;;1.10;;
16099;SDS011;8154;50.830;12.082;2024-01-06T06:45:56;2.65;;;1.30;;
16099;SDS011;8154;50.830;12.082;2024-01-06T06:48:22;2.20;;;1.10;;
16099;SDS011;8154;50.830;12.082;2024-01-06T06:50:49;2.75;;;1.20;;
16099;SDS011;8154;50.830;12.082;2024-01-06T06:53:29;2.35;;;1.20;;
16099;SDS011;8154;50.830;12.082;2024-01-06T06:55:55;2.60;;;1.20;;
16099;SDS011;8154;50.830;12.082;2024-01-06T06:58:21;2.10;;;1.10;;
16099;SDS011;8154;50.830;12.082;2024-01-06T07:00:47;1.90;;;1.10;;
16099;SDS011;8154;50.830;12.082;2024-01-06T07:03:29;1.88;;;1.05;;
16099;SDS011;8154;50.830;12.082;2024-01-06T07:06:12;1.80;;;1.00;;
16099;SDS011;8154;50.830;12.082;2024-01-06T07:08:40;1.90;;;1.10;;
16099;SDS011;8154;50.830;12.082;2024-01-06T07:11:08;2.15;;;1.10;;
16099;SDS011;8154;50.830;12.082;2024-01-06T07:13:38;2.42;;;1.20;;
16099;SDS011;8154;50.830;12.082;2024-01-06T07:16:24;2.15;;;1.15;;
16099;SDS011;8154;50.830;12.082;2024-01-06T07:19:08;2.40;;;1.10;;
16099;SDS011;8154;50.830;12.082;2024-01-06T07:21:39;2.50;;;1.15;;
16099;SDS011;8154;50.830;12.082;2024-01-06T07:24:06;1.92;;;1.10;;
16099;SDS011;8154;50.830;12.082;2024-01-06T07:26:33;2.60;;;1.20;;
16099;SDS011;8154;50.830;12.082;2024-01-06T07:29:12;2.47;;;1.20;;
16099;SDS011;8154;50.830;12.082;2024-01-06T07:31:38;2.23;;;1.20;;
16099;SDS011;8154;50.830;12.082;2024-01-06T07:34:05;2.10;;;1.08;;
16099;SDS011;8154;50.830;12.082;2024-01-06T07:36:32;2.28;;;1.13;;
16099;SDS011;8154;50.830;12.082;2024-01-06T07:38:59;2.05;;;1.00;;
16099;SDS011;8154;50.830;12.082;2024-01-06T07:41:26;2.53;;;1.30;;
16099;SDS011;8154;50.830;12.082;2024-01-06T07:43:52;1.87;;;1.00;;
16099;SDS011;8154;50.830;12.082;2024-01-06T07:46:18;2.40;;;1.20;;
16099;SDS011;8154;50.830;12.082;2024-01-06T07:48:47;2.13;;;1.10;;
16099;SDS011;8154;50.830;12.082;2024-01-06T07:51:28;2.13;;;1.20;;
16099;SDS011;8154;50.830;12.082;2024-01-06T07:54:05;1.92;;;1.00;;
16099;SDS011;8154;50.830;12.082;2024-01-06T07:56:37;2.13;;;1.10;;
16099;SDS011;8154;50.830;12.082;2024-01-06T07:59:03;2.10;;;1.05;;
16099;SDS011;8154;50.830;12.082;2024-01-06T08:01:34;2.25;;;1.10;;
16099;SDS011;8154;50.830;12.082;2024-01-06T08:04:00;2.05;;;1.13;;
16099;SDS011;8154;50.830;12.082;2024-01-06T08:06:26;2.10;;;1.10;;
16099;SDS011;8154;50.830;12.082;2024-01-06T08:08:59;2.70;;;1.27;;
16099;SDS011;8154;50.830;12.082;2024-01-06T08:11:45;1.85;;;1.00;;
16099;SDS011;8154;50.830;12.082;2024-01-06T08:14:27;1.77;;;1.00;;
16099;SDS011;8154;50.830;12.082;2024-01-06T08:17:13;2.20;;;0.90;;
16099;SDS011;8154;50.830;12.082;2024-01-06T08:19:41;2.22;;;1.17;;
16099;SDS011;8154;50.830;12.082;2024-01-06T08:22:27;2.40;;;1.20;;
16099;SDS011;8154;50.830;12.082;2024-01-06T08:25:12;2.25;;;1.05;;
16099;SDS011;8154;50.830;12.082;2024-01-06T08:27:54;2.25;;;1.20;;
16099;SDS011;8154;50.830;12.082;2024-01-06T08:30:38;2.33;;;1.10;;
16099;SDS011;8154;50.830;12.082;2024-01-06T08:33:12;1.70;;;1.00;;
16099;SDS011;8154;50.830;12.082;2024-01-06T08:35:41;1.87;;;1.00;;
16099;SDS011;8154;50.830;12.082;2024-01-06T08:38:08;2.35;;;1.10;;
16099;SDS011;8154;50.830;12.082;2024-01-06T08:40:34;2.55;;;1.10;;
16099;SDS011;8154;50.830;12.082;2024-01-06T08:43:17;2.33;;;1.15;;
16099;SDS011;8154;50.830;12.082;2024-01-06T08:46:02;2.05;;;1.20;;
16099;SDS011;8154;50.830;12.082;2024-01-06T08:48:42;1.83;;;0.97;;
16099;SDS011;8154;50.830;12.082;2024-01-06T08:51:17;2.20;;;1.20;;
16099;SDS011;8154;50.830;12.082;2024-01-06T08:53:47;2.63;;;1.20;;
16099;SDS011;8154;50.830;12.082;2024-01-06T08:56:33;2.33;;;1.20;;
16099;SDS011;8154;50.830;12.082;2024-01-06T08:59:01;2.28;;;1.20;;
16099;SDS011;8154;50.830;12.082;2024-01-06T09:01:43;1.80;;;1.00;;
16099;SDS011;8154;50.830;12.082;2024-01-06T09:04:30;1.92;;;1.08;;
16099;SDS011;8154;50.830;12.082;2024-01-06T09:06:58;2.30;;;1.20;;
16099;SDS011;8154;50.830;12.082;2024-01-06T09:09:44;3.05;;;1.35;;
16099;SDS011;8154;50.830;12.082;2024-01-06T09:12:29;2.40;;;1.10;;
16099;SDS011;8154;50.830;12.082;2024-01-06T09:14:58;2.30;;;1.10;;
16099;SDS011;8154;50.830;12.082;2024-01-06T09:17:26;2.03;;;1.10;;
16099;SDS011;8154;50.830;12.082;2024-01-06T09:20:03;1.80;;;1.00;;
16099;SDS011;8154;50.830;12.082;2024-01-06T09:22:30;2.95;;;1.30;;
16099;SDS011;8154;50.830;12.082;2024-01-06T09:25:00;2.50;;;1.30;;
16099;SDS011;8154;50.830;12.082;2024-01-06T09:27:29;3.07;;;1.20;;
16099;SDS011;8154;50.830;12.082;2024-01-06T09:29:56;2.58;;;1.20;;
16099;SDS011;8154;50.830;12.082;2024-01-06T09:32:35;2.72;;;1.17;;
16099;SDS011;8154;50.830;12.082;2024-01-06T09:35:04;2.60;;;1.25;;
16099;SDS011;8154;50.830;12.082;2024-01-06T09:37:32;2.35;;;1.23;;
16099;SDS011;8154;50.830;12.082;2024-01-06T09:40:21;2.20;;;1.10;;
16099;SDS011;8154;50.830;12.082;2024-01-06T09:42:52;2.00;;;1.02;;
16099;SDS011;8154;50.830;12.082;2024-01-06T09:45:32;1.92;;;1.10;;
16099;SDS011;8154;50.830;12.082;2024-01-06T09:48:00;2.15;;;1.10;;
16099;SDS011;8154;50.830;12.082;2024-01-06T09:50:36;1.85;;;1.08;;
16099;SDS011;8154;50.830;12.082;2024-01-06T09:53:14;1.77;;;0.97;;
16099;SDS011;8154;50.830;12.082;2024-01-06T09:56:00;2.53;;;1.20;;
16099;SDS011;8154;50.830;12.082;2024-01-06T09:58:39;1.90;;;1.10;;
16099;SDS011;8154;50.830;12.082;2024-01-06T10:01:19;1.75;;;1.05;;
16099;SDS011;8154;50.830;12.082;2024-01-06T10:03:59;2.47;;;1.17;;
16099;SDS011;8154;50.830;12.082;2024-01-06T10:06:44;1.80;;;1.00;;
16099;SDS011;8154;50.830;12.082;2024-01-06T10:09:10;2.05;;;1.10;;
16099;SDS011;8154;50.830;12.082;2024-01-06T10:11:39;2.25;;;1.13;;
16099;SDS011;8154;50.830;12.082;2024-01-06T10:14:26;2.00;;;1.10;;
16099;SDS011;8154;50.830;12.082;2024-01-06T10:21:05;2.80;;;1.33;;
16099;SDS011;8154;50.830;12.082;2024-01-06T10:23:53;2.45;;;1.30;;
16099;SDS011;8154;50.830;12.082;2024-01-06T10:26:19;2.10;;;1.20;;
16099;SDS011;8154;50.830;12.082;2024-01-06T10:28:47;2.38;;;1.10;;
16099;SDS011;8154;50.830;12.082;2024-01-06T10:31:16;2.60;;;1.35;;
16099;SDS011;8154;50.830;12.082;2024-01-06T10:33:45;2.60;;;1.20;;
16099;SDS011;8154;50.830;12.082;2024-01-06T10:36:28;1.98;;;1.10;;
16099;SDS011;8154;50.830;12.082;2024-01-06T10:38:55;2.42;;;1.20;;
16099;SDS011;8154;50.830;12.082;2024-01-06T10:41:21;2.00;;;1.10;;
16099;SDS011;8154;50.830;12.082;2024-01-06T10:44:09;2.17;;;1.20;;
16099;SDS011;8154;50.830;12.082;2024-01-06T10:46:55;2.23;;;1.27;;
16099;SDS011;8154;50.830;12.082;2024-01-06T10:49:43;2.38;;;1.17;;
16099;SDS011;8154;50.830;12.082;2024-01-06T10:52:13;2.40;;;1.20;;
16099;SDS011;8154;50.830;12.082;2024-01-06T10:54:58;2.17;;;1.25;;
16099;SDS011;8154;50.830;12.082;2024-01-06T10:57:39;2.60;;;1.20;;
16099;SDS011;8154;50.830;12.082;2024-01-06T11:00:13;2.40;;;1.23;;
16099;SDS011;8154;50.830;12.082;2024-01-06T11:02:40;2.75;;;1.30;;
16099;SDS011;8154;50.830;12.082;2024-01-06T11:05:07;2.40;;;1.30;;
16099;SDS011;8154;50.830;12.082;2024-01-06T11:07:38;2.53;;;1.23;;
16099;SDS011;8154;50.830;12.082;2024-01-06T11:10:12;2.30;;;1.23;;
16099;SDS011;8154;50.830;12.082;2024-01-06T11:12:42;2.27;;;1.37;;
16099;SDS011;8154;50.830;12.082;2024-01-06T11:15:09;2.85;;;1.30;;
16099;SDS011;8154;50.830;12.082;2024-01-06T11:17:54;2.83;;;1.30;;
16099;SDS011;8154;50.830;12.082;2024-01-06T11:20:34;2.78;;;1.48;;
16099;SDS011;8154;50.830;12.082;2024-01-06T11:23:18;2.40;;;1.15;;
16099;SDS011;8154;50.830;12.082;2024-01-06T11:25:52;1.93;;;1.00;;
16099;SDS011;8154;50.830;12.082;2024-01-06T11:28:18;2.97;;;1.30;;
16099;SDS011;8154;50.830;12.082;2024-01-06T11:30:45;2.92;;;1.30;;
16099;SDS011;8154;50.830;12.082;2024-01-06T11:33:30;2.50;;;1.30;;
16099;SDS011;8154;50.830;12.082;2024-01-06T11:36:16;2.28;;;1.23;;
16099;SDS011;8154;50.830;12.082;2024-01-06T11:38:52;2.00;;;1.20;;
16099;SDS011;8154;50.830;12.082;2024-01-06T11:41:47;2.60;;;1.33;;
16099;SDS011;8154;50.830;12.082;2024-01-06T11:44:43;2.92;;;1.40;;
16099;SDS011;8154;50.830;12.082;2024-01-06T11:47:22;2.65;;;1.40;;
16099;SDS011;8154;50.830;12.082;2024-01-06T11:49:52;2.13;;;1.30;;
16099;SDS011;8154;50.830;12.082;2024-01-06T11:52:22;2.20;;;1.30;;
16099;SDS011;8154;50.830;12.082;2024-01-06T11:54:48;2.33;;;1.17;;
16099;SDS011;8154;50.830;12.082;2024-01-06T11:57:15;2.65;;;1.40;;
16099;SDS011;8154;50.830;12.082;2024-01-06T11:59:41;2.72;;;1.38;;
16099;SDS011;8154;50.830;12.082;2024-01-06T12:02:10;2.15;;;1.30;;
16099;SDS011;8154;50.830;12.082;2024-01-06T12:04:38;2.70;;;1.47;;
16099;SDS011;8154;50.830;12.082;2024-01-06T12:07:27;3.22;;;1.50;;
16099;SDS011;8154;50.830;12.082;2024-01-06T12:10:02;2.50;;;1.27;;
16099;SDS011;8154;50.830;12.082;2024-01-06T12:12:30;2.97;;;1.42;;
16099;SDS011;8154;50.830;12.082;2024-01-06T12:15:05;2.53;;;1.40;;
16099;SDS011;8154;50.830;12.082;2024-01-06T12:17:36;2.30;;;1.20;;
16099;SDS011;8154;50.830;12.082;2024-01-06T12:20:07;2.53;;;1.40;;
16099;SDS011;8154;50.830;12.082;2024-01-06T12:22:43;3.10;;;1.50;;
16099;SDS011;8154;50.830;12.082;2024-01-06T12:25:28;2.75;;;1.42;;
16099;SDS011;8154;50.830;12.082;2024-01-06T12:28:10;2.40;;;1.27;;
16099;SDS011;8154;50.830;12.082;2024-01-06T12:30:43;3.07;;;1.60;;
16099;SDS011;8154;50.830;12.082;2024-01-06T12:33:27;2.33;;;1.30;;
16099;SDS011;8154;50.830;12.082;2024-01-06T12:35:53;2.70;;;1.50;;
16099;SDS011;8154;50.830;12.082;2024-01-06T12:38:42;1.70;;;1.10;;
16099;SDS011;8154;50.830;12.082;2024-01-06T12:41:20;2.50;;;1.30;;
16099;SDS011;8154;50.830;12.082;2024-01-06T12:44:03;2.50;;;1.40;;
16099;SDS011;8154;50.830;12.082;2024-01-06T12:46:46;3.03;;;1.55;;
16099;SDS011;8154;50.830;12.082;2024-01-06T12:49:12;1.92;;;1.17;;
16099;SDS011;8154;50.830;12.082;2024-01-06T12:51:40;2.50;;;1.40;;
16099;SDS011;8154;50.830;12.082;2024-01-06T12:54:06;2.88;;;1.35;;
16099;SDS011;8154;50.830;12.082;2024-01-06T12:56:32;2.57;;;1.30;;
16099;SDS011;8154;50.830;12.082;2024-01-06T12:59:00;2.53;;;1.30;;
16099;SDS011;8154;50.830;12.082;2024-01-06T13:01:27;3.00;;;1.40;;
16099;SDS011;8154;50.830;12.082;2024-01-06T13:03:53;2.20;;;1.30;;
16099;SDS011;8154;50.830;12.082;2024-01-06T13:06:39;2.90;;;1.50;;
16099;SDS011;8154;50.830;12.082;2024-01-06T13:09:25;2.50;;;1.30;;
16099;SDS011;8154;50.830;12.082;2024-01-06T13:12:02;2.47;;;1.25;;
16099;SDS011;8154;50.830;12.082;2024-01-06T13:14:47;2.75;;;1.30;;
16099;SDS011;8154;50.830;12.082;2024-01-06T13:17:31;3.25;;;1.45;;
16099;SDS011;8154;50.830;12.082;2024-01-06T13:19:59;3.08;;;1.55;;
16099;SDS011;8154;50.830;12.082;2024-01-06T13:22:30;2.27;;;1.33;;
16099;SDS011;8154;50.830;12.082;2024-01-06T13:24:58;2.50;;;1.42;;
16099;SDS011;8154;50.830;12.082;2024-01-06T13:27:25;3.22;;;1.35;;
16099;SDS011;8154;50.830;12.082;2024-01-06T13:29:53;2.60;;;1.30;;
16099;SDS011;8154;50.830;12.082;2024-01-06T13:32:20;5.45;;;2.67;;
16099;SDS011;8154;50.830;12.082;2024-01-06T13:34:47;7.60;;;4.70;;
16099;SDS011;8154;50.830;12.082;2024-01-06T13:37:20;8.25;;;4.78;;
16099;SDS011;8154;50.830;12.082;2024-01-06T13:39:48;8.75;;;5.30;;
16099;SDS011;8154;50.830;12.082;2024-01-06T13:42:14;10.27;;;5.40;;
16099;SDS011;8154;50.830;12.082;2024-01-06T13:44:42;8.57;;;5.38;;
16099;SDS011;8154;50.830;12.082;2024-01-06T13:47:24;7.03;;;4.60;;
16099;SDS011;8154;50.830;12.082;2024-01-06T13:49:54;6.80;;;4.30;;
16099;SDS011;8154;50.830;12.082;2024-01-06T13:52:22;7.63;;;4.28;;
16099;SDS011;8154;50.830;12.082;2024-01-06T13:54:51;8.18;;;4.55;;
16099;SDS011;8154;50.830;12.082;2024-01-06T13:57:18;7.95;;;4.47;;
16099;SDS011;8154;50.830;12.082;2024-01-06T14:00:03;6.50;;;4.10;;
16099;SDS011;8154;50.830;12.082;2024-01-06T14:02:49;7.93;;;4.20;;
16099;SDS011;8154;50.830;12.082;2024-01-06T14:05:18;7.00;;;4.10;;
16099;SDS011;8154;50.830;12.082;2024-01-06T14:08:04;7.07;;;3.63;;
16099;SDS011;8154;50.830;12.082;2024-01-06T14:10:32;6.88;;;3.70;;
16099;SDS011;8154;50.830;12.082;2024-01-06T14:13:09;9.33;;;3.77;;
16099;SDS011;8154;50.830;12.082;2024-01-06T14:15:54;7.05;;;3.60;;
16099;SDS011;8154;50.830;12.082;2024-01-06T14:18:23;6.05;;;3.47;;
16099;SDS011;8154;50.830;12.082;2024-01-06T14:21:02;6.55;;;3.33;;
16099;SDS011;8154;50.830;12.082;2024-01-06T14:23:47;6.80;;;3.47;;
16099;SDS011;8154;50.830;12.082;2024-01-06T14:26:17;6.70;;;3.10;;
16099;SDS011;8154;50.830;12.082;2024-01-06T14:28:48;6.40;;;3.58;;
16099;SDS011;8154;50.830;12.082;2024-01-06T14:31:14;6.38;;;3.40;;
16099;SDS011;8154;50.830;12.082;2024-01-06T14:33:40;6.38;;;3.70;;
16099;SDS011;8154;50.830;12.082;2024-01-06T14:36:06;6.95;;;3.38;;
16099;SDS011;8154;50.830;12.082;2024-01-06T14:38:35;5.30;;;3.00;;
16099;SDS011;8154;50.830;12.082;2024-01-06T14:41:21;6.75;;;3.38;;
16099;SDS011;8154;50.830;12.082;2024-01-06T14:44:02;6.43;;;3.47;;
16099;SDS011;8154;50.830;12.082;2024-01-06T14:46:48;5.85;;;3.28;;
16099;SDS011;8154;50.830;12.082;2024-01-06T14:49:29;5.68;;;2.90;;
16099;SDS011;8154;50.830;12.082;2024-01-06T14:51:55;5.87;;;3.20;;
16099;SDS011;8154;50.830;12.082;2024-01-06T14:54:28;5.88;;;3.22;;
16099;SDS011;8154;50.830;12.082;2024-01-06T14:56:57;6.57;;;3.00;;
16099;SDS011;8154;50.830;12.082;2024-01-06T14:59:26;6.10;;;3.38;;
16099;SDS011;8154;50.830;12.082;2024-01-06T15:01:54;7.18;;;3.00;;
16099;SDS011;8154;50.830;12.082;2024-01-06T15:04:31;4.90;;;2.90;;
16099;SDS011;8154;50.830;12.082;2024-01-06T15:06:57;5.60;;;3.10;;
16099;SDS011;8154;50.830;12.082;2024-01-06T15:09:38;5.47;;;2.72;;
16099;SDS011;8154;50.830;12.082;2024-01-06T15:12:06;5.60;;;2.90;;
16099;SDS011;8154;50.830;12.082;2024-01-06T15:14:33;5.53;;;2.88;;
16099;SDS011;8154;50.830;12.082;2024-01-06T15:17:00;5.33;;;2.90;;
16099;SDS011;8154;50.830;12.082;2024-01-06T15:19:28;5.82;;;2.80;;
16099;SDS011;8154;50.830;12.082;2024-01-06T15:22:16;6.00;;;3.00;;
16099;SDS011;8154;50.830;12.082;2024-01-06T15:25:01;5.30;;;2.88;;
16099;SDS011;8154;50.830;12.082;2024-01-06T15:27:33;5.13;;;2.70;;
16099;SDS011;8154;50.830;12.082;2024-01-06T15:30:19;4.60;;;2.87;;
16099;SDS011;8154;50.830;12.082;2024-01-06T15:33:05;6.00;;;2.97;;
16099;SDS011;8154;50.830;12.082;2024-01-06T15:35:31;5.75;;;3.10;;
16099;SDS011;8154;50.830;12.082;2024-01-06T15:37:59;5.22;;;2.75;;